createdAt,value
2022-08-05T00:00:51.451Z,21.01
2022-08-05T00:02:52.958Z,20.97
2022-08-05T00:04:55.651Z,21.02
2022-08-05T00:06:55.554Z,21.09
2022-08-05T00:08:56.597Z,21.22
2022-08-05T00:11:00.241Z,21.24
2022-08-05T00:12:59.272Z,21.18
2022-08-05T00:15:14.071Z,21.17
2022-08-05T00:17:03.023Z,21.25
2022-08-05T00:19:03.054Z,21.16
2022-08-05T00:21:04.713Z,21.08
2022-08-05T00:23:13.078Z,20.99
2022-08-05T00:25:08.321Z,20.87
2022-08-05T00:27:10.180Z,20.84
2022-08-05T00:29:09.764Z,20.79
2022-08-05T00:31:11.512Z,20.69
2022-08-05T00:33:15.605Z,20.68
2022-08-05T00:35:14.374Z,20.7
2022-08-05T00:37:15.754Z,20.72
2022-08-05T00:39:17.063Z,20.74
2022-08-05T00:41:18.916Z,20.8
2022-08-05T00:43:19.878Z,20.79
2022-08-05T00:45:24.942Z,20.74
2022-08-05T00:47:22.160Z,20.73
2022-08-05T00:49:23.389Z,20.69
2022-08-05T00:51:51.322Z,20.66
2022-08-05T00:53:45.543Z,20.72
2022-08-05T00:55:29.040Z,20.76
2022-08-05T00:57:31.655Z,20.77
2022-08-05T00:59:34.456Z,20.71
2022-08-05T01:01:42.343Z,20.63
2022-08-05T01:03:34.154Z,20.6
2022-08-05T01:05:34.164Z,20.54
2022-08-05T01:07:35.762Z,20.51
2022-08-05T01:09:37.331Z,20.58
2022-08-05T01:11:38.985Z,20.6
2022-08-05T01:13:58.132Z,20.55
2022-08-05T01:15:41.685Z,20.63
2022-08-05T01:17:43.893Z,20.77
2022-08-05T01:19:57.173Z,20.84
2022-08-05T01:21:45.105Z,20.89
2022-08-05T01:23:46.076Z,20.91
2022-08-05T01:25:50.239Z,20.93
2022-08-05T01:27:50.828Z,21.09
2022-08-05T01:29:50.119Z,20.96
2022-08-05T01:31:51.450Z,20.79
2022-08-05T01:33:53.750Z,20.69
2022-08-05T01:35:53.761Z,20.69
2022-08-05T01:37:55.552Z,20.7
2022-08-05T01:39:57.658Z,20.84
2022-08-05T01:41:57.522Z,20.95
2022-08-05T01:43:58.613Z,21.31
2022-08-05T01:46:07.045Z,21.65
2022-08-05T01:48:01.409Z,21.95
2022-08-05T01:50:03.229Z,22.02
2022-08-05T01:52:12.474Z,22.22
2022-08-05T01:54:06.633Z,22.33
2022-08-05T01:56:09.018Z,22.79
2022-08-05T01:58:15.823Z,23
2022-08-05T02:00:11.762Z,23.05
2022-08-05T02:02:12.151Z,22.96
2022-08-05T02:04:13.661Z,22.92
2022-08-05T02:06:33.692Z,22.99
2022-08-05T02:08:15.585Z,22.99
2022-08-05T02:10:17.238Z,23.03
2022-08-05T02:12:18.868Z,23.02
2022-08-05T02:14:19.935Z,23.02
2022-08-05T02:16:22.166Z,23.04
2022-08-05T02:18:29.228Z,23.03
2022-08-05T02:20:24.457Z,23
2022-08-05T02:22:26.850Z,23.19
2022-08-05T02:24:26.845Z,23.28
2022-08-05T02:26:27.764Z,23.37
2022-08-05T02:28:32.077Z,23.8
2022-08-05T02:30:30.504Z,23.77
2022-08-05T02:32:32.217Z,23.71
2022-08-05T02:34:33.156Z,23.77
2022-08-05T02:36:34.381Z,23.81
2022-08-05T02:38:36.073Z,23.8
2022-08-05T02:40:37.900Z,23.72
2022-08-05T02:42:39.687Z,23.73
2022-08-05T02:44:41.469Z,23.77
2022-08-05T02:46:44.113Z,23.76
2022-08-05T02:48:44.528Z,23.65
2022-08-05T02:50:46.129Z,23.53
2022-08-05T02:52:47.258Z,23.4
2022-08-05T02:54:50.615Z,23.36
2022-08-05T02:56:50.148Z,23.44
2022-08-05T02:58:52.593Z,23.32
2022-08-05T03:00:52.867Z,23.26
2022-08-05T03:02:54.044Z,23.09
2022-08-05T03:04:55.129Z,23.16
2022-08-05T03:06:59.127Z,23.1
2022-08-05T03:11:01.200Z,23.03
2022-08-05T03:15:02.389Z,23.24
2022-08-05T03:17:07.404Z,23.04
2022-08-05T03:19:13.020Z,22.94
2022-08-05T03:21:06.091Z,22.85
2022-08-05T03:23:07.592Z,22.85
2022-08-05T03:25:31.508Z,22.81
2022-08-05T03:27:10.208Z,22.79
2022-08-05T03:29:12.219Z,22.91
2022-08-05T03:31:18.346Z,22.95
2022-08-05T03:33:14.030Z,23.06
2022-08-05T03:35:15.658Z,22.98
2022-08-05T03:37:16.850Z,22.85
2022-08-05T03:39:20.402Z,22.82
2022-08-05T03:41:19.932Z,22.77
2022-08-05T03:43:59.389Z,22.82
2022-08-05T03:45:23.633Z,22.82
2022-08-05T03:47:24.536Z,22.79
2022-08-05T03:49:30.928Z,22.75
2022-08-05T03:52:35.937Z,22.68
2022-08-05T03:54:59.580Z,22.66
2022-08-05T03:55:54.638Z,22.63
2022-08-05T03:57:41.422Z,22.67
2022-08-05T03:59:47.440Z,22.69
2022-08-05T04:01:33.581Z,22.65
2022-08-05T04:03:34.938Z,22.54
2022-08-05T04:05:35.939Z,22.43
2022-08-05T04:07:46.753Z,22.26
2022-08-05T04:09:38.649Z,22.07
2022-08-05T04:11:47.206Z,21.89
2022-08-05T04:13:50.711Z,21.89
2022-08-05T04:15:52.993Z,22.07
2022-08-05T04:17:56.035Z,22.03
2022-08-05T04:19:45.439Z,22.12
2022-08-05T04:22:05.596Z,22.1
2022-08-05T04:23:57.522Z,22.04
2022-08-05T04:25:57.027Z,21.95
2022-08-05T04:27:56.763Z,21.87
2022-08-05T04:29:53.856Z,21.84
2022-08-05T04:31:56.815Z,21.87
2022-08-05T04:34:19.506Z,21.88
2022-08-05T04:36:11.416Z,22.06
2022-08-05T04:38:01.902Z,22.09
2022-08-05T04:40:01.052Z,22.05
2022-08-05T04:42:02.360Z,22.06
2022-08-05T04:44:09.169Z,22.09
2022-08-05T04:46:04.579Z,22.28
2022-08-05T04:48:05.434Z,22.5
2022-08-05T04:50:11.414Z,22.59
2022-08-05T04:52:07.845Z,22.45
2022-08-05T04:54:09.324Z,22.65
2022-08-05T04:56:15.736Z,22.78
2022-08-05T04:58:12.297Z,22.82
2022-08-05T05:00:12.561Z,22.97
2022-08-05T05:02:35.912Z,23.03
2022-08-05T05:04:14.733Z,23.13
2022-08-05T05:06:35.712Z,23.26
2022-08-05T05:08:26.824Z,23.21
2022-08-05T05:10:18.701Z,22.74
2022-08-05T05:12:20.150Z,22.48
2022-08-05T05:14:28.236Z,22.36
2022-08-05T05:16:22.634Z,22.31
2022-08-05T05:18:28.522Z,22.37
2022-08-05T05:20:28.612Z,22.32
2022-08-05T05:22:26.294Z,22.36
2022-08-05T05:24:35.826Z,22.5
2022-08-05T05:26:32.707Z,22.62
2022-08-05T05:28:29.189Z,22.78
2022-08-05T05:30:31.633Z,22.96
2022-08-05T05:32:31.421Z,23.3
2022-08-05T05:34:32.537Z,23.59
2022-08-05T05:36:35.356Z,24.19
2022-08-05T05:38:35.404Z,24.82
2022-08-05T05:40:37.063Z,25.19
2022-08-05T05:42:38.610Z,25.25
2022-08-05T05:44:43.062Z,25.36
2022-08-05T05:46:41.337Z,25.75
2022-08-05T05:48:43.888Z,25.68
2022-08-05T05:50:44.570Z,26.03
2022-08-05T05:52:46.561Z,26.28
2022-08-05T05:54:50.692Z,26.74
2022-08-05T05:56:48.032Z,26.67
2022-08-05T05:58:49.616Z,26.74
2022-08-05T06:00:50.631Z,26.82
2022-08-05T06:02:52.152Z,26.37
2022-08-05T06:04:53.407Z,26.83
2022-08-05T06:06:54.537Z,26.69
2022-08-05T06:08:56.229Z,26.87
2022-08-05T06:11:41.563Z,26.77
2022-08-05T06:13:50.364Z,26.7
2022-08-05T06:16:27.227Z,26.75
2022-08-05T06:17:52.560Z,26.6
2022-08-05T06:19:56.477Z,26.69
2022-08-05T06:21:49.441Z,26.61
2022-08-05T06:23:49.807Z,26.58
2022-08-05T06:25:59.985Z,26.67
2022-08-05T06:28:09.821Z,26.3
2022-08-05T06:30:02.574Z,26.47
2022-08-05T06:31:54.909Z,26.48
2022-08-05T06:34:06.704Z,26.34
2022-08-05T06:36:03.246Z,26.31
2022-08-05T06:37:59.495Z,26.56
2022-08-05T06:39:59.305Z,27.26
2022-08-05T06:42:00.650Z,27.12
2022-08-05T06:44:02.363Z,27.11
2022-08-05T06:46:07.398Z,26.87
2022-08-05T06:48:12.407Z,26.64
2022-08-05T06:50:06.552Z,26.85
2022-08-05T06:52:08.207Z,26.71
2022-08-05T06:54:09.300Z,26.6
2022-08-05T06:56:11.726Z,26.62
2022-08-05T06:58:20.441Z,26.83
2022-08-05T07:00:12.685Z,26.41
2022-08-05T07:02:13.510Z,26.67
2022-08-05T07:04:14.729Z,26.78
2022-08-05T07:06:15.963Z,27.09
2022-08-05T07:10:18.323Z,27.04
2022-08-05T07:12:19.133Z,27.32
2022-08-05T07:14:20.847Z,27.82
2022-08-05T07:17:56.072Z,27.85
2022-08-05T07:18:27.336Z,27.28
2022-08-05T07:20:36.318Z,27.8
2022-08-05T07:22:28.043Z,27.2
2022-08-05T07:24:25.426Z,27.7
2022-08-05T07:26:26.459Z,27.39
2022-08-05T07:28:27.868Z,27.16
2022-08-05T07:30:31.182Z,27.56
2022-08-05T07:32:30.291Z,27.3
2022-08-05T07:34:31.472Z,27.2
2022-08-05T07:36:32.266Z,28.06
2022-08-05T07:38:35.788Z,27.9
2022-08-05T07:40:35.305Z,27.94
2022-08-05T07:42:36.314Z,27.74
2022-08-05T07:44:37.064Z,27.57
2022-08-05T07:46:38.009Z,27.52
2022-08-05T07:49:01.283Z,27.02
2022-08-05T07:50:40.119Z,27.15
2022-08-05T07:52:41.599Z,27.3
2022-08-05T07:54:47.581Z,27.07
2022-08-05T07:57:01.066Z,26.39
2022-08-05T07:58:54.607Z,26.34
2022-08-05T08:00:47.033Z,26.22
2022-08-05T08:03:13.492Z,26.28
2022-08-05T08:04:49.806Z,26.33
2022-08-05T08:06:51.245Z,26.29
2022-08-05T08:08:52.370Z,26.3
2022-08-05T08:10:53.702Z,26.31
2022-08-05T08:12:55.255Z,26.14
2022-08-05T08:14:56.764Z,26.1
2022-08-05T08:16:57.597Z,26.1
2022-08-05T08:18:58.944Z,25.93
2022-08-05T08:21:01.991Z,25.85
2022-08-05T08:23:03.059Z,25.8
2022-08-05T08:25:02.949Z,25.77
2022-08-05T08:27:07.012Z,25.69
2022-08-05T08:29:22.081Z,25.74
2022-08-05T08:31:06.384Z,25.56
2022-08-05T08:33:08.467Z,25.72
2022-08-05T08:35:13.421Z,25.88
2022-08-05T08:37:11.037Z,25.88
2022-08-05T08:39:14.914Z,26.38
2022-08-05T08:41:13.255Z,26.79
2022-08-05T08:43:21.204Z,27.31
2022-08-05T08:45:24.619Z,27.32
2022-08-05T08:47:21.999Z,27.83
2022-08-05T08:51:22.717Z,28.74
2022-08-05T08:53:21.510Z,28.52
2022-08-05T08:55:31.854Z,28.9
2022-08-05T08:57:24.206Z,28.72
2022-08-05T08:59:27.488Z,28.99
2022-08-05T09:01:26.828Z,29.61
2022-08-05T09:03:27.994Z,29.26
2022-08-05T09:05:38.197Z,28.67
2022-08-05T09:07:39.592Z,28.94
2022-08-05T09:09:34.917Z,29.38
2022-08-05T09:11:50.485Z,28.95
2022-08-05T09:14:01.437Z,29.22
2022-08-05T09:15:36.872Z,29.23
2022-08-05T09:17:41.473Z,29.54
2022-08-05T09:19:55.377Z,29.6
2022-08-05T09:22:18.162Z,30.34
2022-08-05T09:23:43.500Z,30.57
2022-08-05T09:26:00.762Z,30.37
2022-08-05T09:28:03.590Z,30.23
2022-08-05T09:29:44.831Z,29.94
2022-08-05T09:32:39.467Z,30.58
2022-08-05T09:33:47.418Z,30.32
2022-08-05T09:35:49.165Z,30.2
2022-08-05T09:38:13.114Z,30.24
2022-08-05T09:39:52.131Z,30.14
2022-08-05T09:41:56.334Z,30.24
2022-08-05T09:43:53.785Z,30.11
2022-08-05T09:46:05.624Z,30.32
2022-08-05T09:47:56.738Z,30.48
2022-08-05T09:50:00.861Z,30.05
2022-08-05T09:51:57.949Z,30.32
2022-08-05T09:54:00.425Z,30.74
2022-08-05T09:56:04.079Z,30.92
2022-08-05T09:58:01.985Z,31.21
2022-08-05T10:00:07.384Z,30.9
2022-08-05T10:02:03.721Z,30.72
2022-08-05T10:04:10.211Z,31.39
2022-08-05T10:06:07.731Z,31.87
2022-08-05T10:08:11.295Z,31.33
2022-08-05T10:10:14.695Z,30.99
2022-08-05T10:12:19.043Z,30.76
2022-08-05T10:14:11.136Z,30.7
2022-08-05T10:16:12.471Z,30.5
2022-08-05T10:18:13.867Z,30.3
2022-08-05T10:20:14.957Z,30.41
2022-08-05T10:22:30.147Z,30.07
2022-08-05T10:24:17.489Z,30.01
2022-08-05T10:26:19.284Z,29.92
2022-08-05T10:28:29.066Z,29.83
2022-08-05T10:30:41.683Z,30.16
2022-08-05T10:32:49.846Z,30.21
2022-08-05T10:34:25.725Z,30.5
2022-08-05T10:36:25.955Z,31.32
2022-08-05T10:38:26.630Z,31.43
2022-08-05T10:40:28.540Z,31.69
2022-08-05T10:42:32.673Z,32
2022-08-05T10:44:30.835Z,31.84
2022-08-05T10:46:32.555Z,31.92
2022-08-05T10:48:38.343Z,31.98
2022-08-05T10:50:36.788Z,32.34
2022-08-05T10:52:37.064Z,31.69
2022-08-05T10:54:38.099Z,31.78
2022-08-05T10:56:39.307Z,32.11
2022-08-05T10:58:47.987Z,32.3
2022-08-05T11:00:41.045Z,32.43
2022-08-05T11:02:43.604Z,32.74
2022-08-05T11:04:42.767Z,32.93
2022-08-05T11:06:44.483Z,32.04
2022-08-05T11:08:45.866Z,32.52
2022-08-05T11:10:50.120Z,32.84
2022-08-05T11:12:50.285Z,33.02
2022-08-05T11:15:01.058Z,32.66
2022-08-05T11:16:57.145Z,32.51
2022-08-05T11:18:52.036Z,32.75
2022-08-05T11:20:52.936Z,33.33
2022-08-05T11:22:56.105Z,33.09
2022-08-05T11:25:16.715Z,32.56
2022-08-05T11:26:56.088Z,32.64
2022-08-05T11:28:58.126Z,32.55
2022-08-05T11:30:58.987Z,32.76
2022-08-05T11:32:59.798Z,32.84
2022-08-05T11:35:00.683Z,33.62
2022-08-05T11:37:02.149Z,33.32
2022-08-05T11:39:02.919Z,33.1
2022-08-05T11:41:14.340Z,32.99
2022-08-05T11:43:05.555Z,32.74
2022-08-05T11:45:14.149Z,33.05
2022-08-05T11:47:12.221Z,32.82
2022-08-05T11:49:10.099Z,33.44
2022-08-05T11:51:10.796Z,32.89
2022-08-05T11:53:10.994Z,33.36
2022-08-05T11:55:12.738Z,33.08
2022-08-05T11:57:24.702Z,33.35
2022-08-05T11:59:15.519Z,33.41
2022-08-05T12:01:19.093Z,33.07
2022-08-05T12:03:24.148Z,33.56
2022-08-05T12:05:19.537Z,33.83
2022-08-05T12:08:02.854Z,34
2022-08-05T12:09:21.737Z,33.54
2022-08-05T12:11:23.293Z,33.48
2022-08-05T12:13:28.297Z,33.01
2022-08-05T12:15:33.290Z,33.87
2022-08-05T12:18:00.861Z,33.78
2022-08-05T12:20:17.317Z,34.38
2022-08-05T12:21:29.722Z,34.6
2022-08-05T12:23:29.937Z,33.92
2022-08-05T12:25:31.118Z,33.08
2022-08-05T12:27:32.593Z,33.18
2022-08-05T12:29:38.075Z,32.57
2022-08-05T12:31:40.678Z,32.96
2022-08-05T12:33:36.203Z,33.09
2022-08-05T12:35:39.808Z,33.68
2022-08-05T12:37:38.092Z,33.39
2022-08-05T12:39:39.395Z,33.39
2022-08-05T12:41:43.523Z,33.14
2022-08-05T12:43:42.165Z,33.74
2022-08-05T12:45:49.622Z,33.56
2022-08-05T12:48:01.206Z,33.43
2022-08-05T12:50:02.886Z,33.03
2022-08-05T12:52:11.281Z,33.09
2022-08-05T12:53:55.801Z,33.33
2022-08-05T12:56:37.359Z,33.35
2022-08-05T12:58:39.253Z,34.11
2022-08-05T13:01:59.534Z,32.89
2022-08-05T13:02:39.993Z,32.57
2022-08-05T13:06:40.415Z,32.56
2022-08-05T13:08:41.882Z,31.9
2022-08-05T13:10:50.430Z,32.67
2022-08-05T13:12:50.869Z,33.12
2022-08-05T13:14:45.747Z,32.84
2022-08-05T13:16:46.772Z,32.55
2022-08-05T13:18:48.061Z,32.59
2022-08-05T13:20:49.089Z,32.14
2022-08-05T13:22:49.656Z,32.46
2022-08-05T13:24:57.804Z,32.78
2022-08-05T13:26:51.993Z,32.51
2022-08-05T13:28:53.414Z,32.21
2022-08-05T13:30:54.160Z,31.47
2022-08-05T13:32:56.469Z,31.95
2022-08-05T13:34:56.061Z,32.99
2022-08-05T13:36:57.709Z,32.84
2022-08-05T13:38:59.072Z,32.41
2022-08-05T13:41:00.771Z,32.26
2022-08-05T13:43:01.855Z,32.34
2022-08-05T13:45:02.913Z,32.49
2022-08-05T13:47:05.061Z,33.11
2022-08-05T13:49:05.554Z,32.84
2022-08-05T13:51:06.770Z,32.14
2022-08-05T13:53:08.832Z,31.65
2022-08-05T13:55:09.711Z,31.31
2022-08-05T13:57:10.198Z,31.93
2022-08-05T13:59:19.376Z,32.32
2022-08-05T14:01:13.174Z,32.57
2022-08-05T14:03:14.057Z,31.99
2022-08-05T14:05:19.503Z,31.07
2022-08-05T14:07:26.590Z,31.3
2022-08-05T14:09:18.243Z,31.36
2022-08-05T14:11:20.742Z,31.26
2022-08-05T14:13:21.199Z,31.18
2022-08-05T14:15:22.100Z,31.52
2022-08-05T14:17:23.490Z,31.31
2022-08-05T14:19:24.906Z,30.66
2022-08-05T14:22:07.854Z,30.56
2022-08-05T14:23:28.791Z,30.48
2022-08-05T14:25:30.064Z,29.71
2022-08-05T14:27:29.700Z,29.67
2022-08-05T14:29:31.275Z,29.76
2022-08-05T14:31:54.722Z,29.78
2022-08-05T14:33:56.818Z,30.22
2022-08-05T14:35:36.177Z,30.04
2022-08-05T14:37:42.089Z,30.07
2022-08-05T14:39:48.586Z,29.67
2022-08-05T14:41:38.845Z,29.79
2022-08-05T14:43:59.855Z,29.36
2022-08-05T14:47:58.603Z,29.72
2022-08-05T14:49:56.657Z,29.73
2022-08-05T14:51:45.370Z,29.81
2022-08-05T14:54:07.002Z,29.9
2022-08-05T14:55:52.143Z,29.85
2022-08-05T14:57:54.168Z,29.65
2022-08-05T14:59:50.531Z,29.06
2022-08-05T15:01:51.424Z,29.58
2022-08-05T15:03:53.122Z,29.13
2022-08-05T15:06:07.085Z,29.36
2022-08-05T15:08:05.424Z,29.36
2022-08-05T15:09:57.646Z,29.09
2022-08-05T15:11:59.149Z,29.13
2022-08-05T15:14:00.038Z,29.14
2022-08-05T15:16:01.737Z,29.13
2022-08-05T15:18:03.633Z,28.9
2022-08-05T15:20:04.229Z,29.22
2022-08-05T15:22:05.793Z,28.92
2022-08-05T15:24:06.898Z,28.85
2022-08-05T15:26:07.909Z,28.95
2022-08-05T15:28:09.008Z,28.88
2022-08-05T15:30:09.990Z,29.24
2022-08-05T15:32:11.074Z,28.75
2022-08-05T15:34:19.249Z,28.53
2022-08-05T15:36:17.145Z,28.25
2022-08-05T15:38:35.191Z,28.24
2022-08-05T15:40:42.567Z,28.55
2022-08-05T15:42:49.858Z,28.46
2022-08-05T15:44:18.898Z,28.08
2022-08-05T15:46:20.530Z,28.28
2022-08-05T15:48:21.773Z,28.06
2022-08-05T15:50:25.161Z,27.84
2022-08-05T15:52:29.804Z,27.82
2022-08-05T15:54:34.632Z,28.23
2022-08-05T15:56:26.023Z,28.2
2022-08-05T15:58:27.463Z,28.06
2022-08-05T16:00:32.842Z,27.44
2022-08-05T16:02:29.452Z,27.14
2022-08-05T16:04:30.456Z,27.29
2022-08-05T16:06:31.741Z,27.4
2022-08-05T16:08:32.718Z,27.33
2022-08-05T16:10:34.341Z,27.25
2022-08-05T16:12:35.456Z,27.31
2022-08-05T16:14:36.729Z,27.26
2022-08-05T16:16:37.601Z,27.07
2022-08-05T16:18:52.047Z,27
2022-08-05T16:20:39.549Z,26.93
2022-08-05T16:22:40.912Z,26.98
2022-08-05T16:24:51.509Z,27.04
2022-08-05T16:26:43.470Z,26.83
2022-08-05T16:28:45.204Z,26.79
2022-08-05T16:30:46.071Z,26.83
2022-08-05T16:32:46.927Z,26.77
2022-08-05T16:34:48.560Z,26.77
2022-08-05T16:36:49.758Z,26.84
2022-08-05T16:38:54.593Z,26.9
2022-08-05T16:40:55.889Z,26.75
2022-08-05T16:42:53.492Z,26.78
2022-08-05T16:44:56.942Z,26.7
2022-08-05T16:46:56.311Z,26.76
2022-08-05T16:48:56.532Z,26.93
2022-08-05T16:50:58.016Z,27
2022-08-05T16:52:59.357Z,26.97
2022-08-05T16:55:01.059Z,27.16
2022-08-05T16:57:02.637Z,27.36
2022-08-05T16:59:07.643Z,27.49
2022-08-05T17:01:06.592Z,27.66
2022-08-05T17:03:09.164Z,27.74
2022-08-05T17:05:07.171Z,27.55
2022-08-05T17:07:11.327Z,27.53
2022-08-05T17:09:09.444Z,27.31
2022-08-05T17:11:12.612Z,27.04
2022-08-05T17:13:16.711Z,26.8
2022-08-05T17:15:15.752Z,26.61
2022-08-05T17:17:14.413Z,26.57
2022-08-05T17:19:15.350Z,26.52
2022-08-05T17:21:16.564Z,26.52
2022-08-05T17:24:03.974Z,26.48
2022-08-05T17:25:22.343Z,26.38
2022-08-05T17:27:20.782Z,26.36
2022-08-05T17:29:22.407Z,26.34
2022-08-05T17:31:24.299Z,26.3
2022-08-05T17:33:23.777Z,26.3
2022-08-05T17:35:24.595Z,26.21
2022-08-05T17:37:27.388Z,26.22
2022-08-05T17:39:33.276Z,26.01
2022-08-05T17:42:18.735Z,26
2022-08-05T17:43:46.630Z,26.02
2022-08-05T17:45:38.389Z,25.9
2022-08-05T17:47:33.588Z,25.78
2022-08-05T17:49:51.787Z,25.68
2022-08-05T17:51:40.218Z,25.62
2022-08-05T17:53:36.238Z,25.68
2022-08-05T17:55:39.543Z,25.69
2022-08-05T17:57:38.684Z,25.62
2022-08-05T17:59:40.321Z,25.56
2022-08-05T18:01:47.266Z,25.4
2022-08-05T18:03:58.774Z,25.24
2022-08-05T18:05:45.844Z,25.18
2022-08-05T18:07:46.606Z,25.16
2022-08-05T18:09:59.310Z,25.08
2022-08-05T18:11:52.455Z,24.91
2022-08-05T18:13:50.691Z,24.86
2022-08-05T18:15:52.038Z,24.82
2022-08-05T18:17:58.476Z,24.73
2022-08-05T18:19:54.396Z,24.58
2022-08-05T18:22:07.081Z,24.5
2022-08-05T18:23:57.058Z,24.44
2022-08-05T18:25:59.405Z,24.47
2022-08-05T18:27:59.942Z,24.35
2022-08-05T18:30:01.697Z,24.33
2022-08-05T18:32:02.985Z,24.24
2022-08-05T18:34:03.912Z,24.25
2022-08-05T18:36:09.240Z,24.19
2022-08-05T18:38:07.120Z,24.12
2022-08-05T18:40:31.295Z,24.08
2022-08-05T18:42:11.304Z,24.04
2022-08-05T18:44:11.288Z,24
2022-08-05T18:46:12.943Z,23.98
2022-08-05T18:48:17.479Z,23.9
2022-08-05T18:50:15.883Z,23.86
2022-08-05T18:52:16.496Z,23.75
2022-08-05T18:54:18.125Z,23.55
2022-08-05T18:56:21.590Z,23.39
2022-08-05T18:58:21.205Z,23.21
2022-08-05T19:00:27.363Z,23.15
2022-08-05T19:02:36.587Z,23.05
2022-08-05T19:04:24.460Z,23
2022-08-05T19:06:34.001Z,22.94
2022-08-05T19:08:30.416Z,22.86
2022-08-05T19:10:27.853Z,22.85
2022-08-05T19:12:29.619Z,22.85
2022-08-05T19:14:45.033Z,22.81
2022-08-05T19:16:35.300Z,22.8
2022-08-05T19:18:32.651Z,22.69
2022-08-05T19:20:33.883Z,22.55
2022-08-05T19:22:35.482Z,22.33
2022-08-05T19:24:37.151Z,22.28
2022-08-05T19:26:43.717Z,22.17
2022-08-05T19:28:40.247Z,22.12
2022-08-05T19:30:43.809Z,22.05
2022-08-05T19:32:42.924Z,21.9
2022-08-05T19:34:54.405Z,21.93
2022-08-05T19:36:45.947Z,21.83
2022-08-05T19:38:46.962Z,21.82
2022-08-05T19:41:34.948Z,21.74
2022-08-05T19:44:05.244Z,21.65
2022-08-05T19:45:36.682Z,21.58
2022-08-05T19:47:37.303Z,21.58
2022-08-05T19:49:37.692Z,21.53
2022-08-05T19:52:06.409Z,21.45
2022-08-05T19:54:03.889Z,21.38
2022-08-05T19:56:12.164Z,21.38
2022-08-05T19:57:47.526Z,21.33
2022-08-05T19:59:53.761Z,21.33
2022-08-05T20:01:44.404Z,21.32
2022-08-05T20:03:45.405Z,21.3
2022-08-05T20:05:50.467Z,21.2
2022-08-05T20:07:49.112Z,21.16
2022-08-05T20:09:54.249Z,21.18
2022-08-05T20:11:51.562Z,21.05
2022-08-05T20:13:55.182Z,21.02
2022-08-05T20:15:56.975Z,21.02
2022-08-05T20:17:54.352Z,20.89
2022-08-05T20:19:56.653Z,20.92
2022-08-05T20:21:57.275Z,20.85
2022-08-05T20:23:59.053Z,20.81
2022-08-05T20:26:09.130Z,20.8
2022-08-05T20:28:01.967Z,20.79
2022-08-05T20:30:03.128Z,20.79
2022-08-05T20:32:04.082Z,20.75
2022-08-05T20:34:05.587Z,20.66
2022-08-05T20:36:06.840Z,20.6
2022-08-05T20:38:08.492Z,20.56
2022-08-05T20:40:09.010Z,20.6
2022-08-05T20:44:17.917Z,20.43
2022-08-05T20:46:18.301Z,20.35
2022-08-05T20:48:16.196Z,20.33
2022-08-05T20:50:15.166Z,20.31
2022-08-05T20:52:16.830Z,20.33
2022-08-05T20:54:17.996Z,20.26
2022-08-05T20:56:24.469Z,20.22
2022-08-05T20:58:20.162Z,20.15
2022-08-05T21:00:41.729Z,20.16
2022-08-05T21:02:22.314Z,20.08
2022-08-05T21:04:23.593Z,20.06
2022-08-05T21:06:28.063Z,20.04
2022-08-05T21:08:26.423Z,19.96
2022-08-05T21:10:27.478Z,19.91
2022-08-05T21:12:28.523Z,19.8
2022-08-05T21:14:31.500Z,19.83
2022-08-05T21:16:31.026Z,19.82
2022-08-05T21:18:31.773Z,19.8
2022-08-05T21:20:33.781Z,19.78
2022-08-05T21:22:35.322Z,19.77
2022-08-05T21:24:36.413Z,19.75
2022-08-05T21:26:37.435Z,19.74
2022-08-05T21:28:39.077Z,19.74
2022-08-05T21:30:40.729Z,19.75
2022-08-05T21:32:42.516Z,19.65
2022-08-05T21:34:44.285Z,19.61
2022-08-05T21:36:53.275Z,19.51
2022-08-05T21:38:46.224Z,19.48
2022-08-05T21:40:47.850Z,19.45
2022-08-05T21:42:48.890Z,19.41
2022-08-05T21:44:50.516Z,19.35
2022-08-05T21:46:51.890Z,19.36
2022-08-05T21:48:53.309Z,19.33
2022-08-05T21:50:54.657Z,19.28
2022-08-05T21:52:58.708Z,19.26
2022-08-05T21:57:29.467Z,19.24
2022-08-05T21:59:00.341Z,19.24
2022-08-05T22:01:01.558Z,19.14
2022-08-05T22:03:02.712Z,19.13
2022-08-05T22:05:04.279Z,19.05
2022-08-05T22:07:05.373Z,19
2022-08-05T22:09:13.038Z,18.89
2022-08-05T22:11:08.334Z,18.86
2022-08-05T22:14:05.426Z,18.83
2022-08-05T22:15:11.736Z,18.86
2022-08-05T22:17:12.696Z,18.84
2022-08-05T22:19:15.277Z,18.86
2022-08-05T22:21:19.015Z,18.85
2022-08-05T22:23:18.825Z,18.86
2022-08-05T22:25:21.471Z,18.87
2022-08-05T22:27:21.281Z,18.86
2022-08-05T22:29:26.096Z,18.82
2022-08-05T22:31:24.222Z,18.79
2022-08-05T22:33:56.260Z,18.77
2022-08-05T22:35:27.161Z,18.7
2022-08-05T22:37:31.376Z,18.67
2022-08-05T22:39:33.561Z,18.63
2022-08-05T22:42:05.242Z,18.56
2022-08-05T22:43:36.142Z,18.51
2022-08-05T22:45:34.587Z,18.46
2022-08-05T22:47:35.681Z,18.5
2022-08-05T22:50:17.479Z,18.46
2022-08-05T22:52:02.836Z,18.45
2022-08-05T22:53:39.792Z,18.38
2022-08-05T22:55:56.842Z,18.34
2022-08-05T22:57:42.934Z,18.29
2022-08-05T22:59:52.028Z,18.19
2022-08-05T23:01:51.117Z,18.13
2022-08-05T23:03:57.518Z,18.03
2022-08-05T23:05:48.170Z,17.93
2022-08-05T23:07:49.633Z,17.89
2022-08-05T23:09:53.070Z,17.82
2022-08-05T23:11:51.375Z,17.86
2022-08-05T23:13:53.137Z,17.86
2022-08-05T23:15:54.616Z,17.83
2022-08-05T23:17:59.914Z,17.78
2022-08-05T23:19:57.268Z,17.75
2022-08-05T23:21:59.083Z,17.85
2022-08-05T23:24:00.365Z,17.83
2022-08-05T23:26:01.602Z,17.91
2022-08-05T23:28:02.888Z,17.84
2022-08-05T23:30:08.129Z,17.79
2022-08-05T23:32:06.024Z,17.75
2022-08-05T23:34:07.814Z,17.75
2022-08-05T23:36:09.925Z,17.61
2022-08-05T23:38:11.946Z,17.54
2022-08-05T23:40:11.169Z,17.48
2022-08-05T23:42:14.394Z,17.39
2022-08-05T23:44:14.578Z,17.4
2022-08-05T23:46:17.647Z,17.39
2022-08-05T23:48:26.393Z,17.45
2022-08-05T23:50:20.140Z,17.44
2022-08-05T23:52:19.753Z,17.49
2022-08-05T23:54:25.395Z,17.42
2022-08-05T23:56:27.425Z,17.37
2022-08-05T23:58:31.609Z,17.33
